Time;durP1;ratioP1;P1;durP2;ratioP2;P2;SDS_P1;SDS_P2;PMS_P1;PMS_P2;Temp;Humidity;BMP_temperature;BMP_pressure;BME280_temperature;BME280_humidity;BME280_pressure;Samples;Min_cycle;Max_cycle;Signal;HPM_P1;HPM_P2
2022/09/04 00:00:09;;;;;;;1.20;0.90;;;;;;;;;;7387999;19;20031;-77
2022/09/04 00:03:09;;;;;;;0.90;0.57;;;;;;;;;;7386992;19;20036;-77
2022/09/04 00:05:44;;;;;;;0.93;0.75;;;;;;;;;;7388869;19;20456;-77
2022/09/04 00:08:21;;;;;;;0.70;0.70;;;;;;;;;;7390798;19;20017;-77
2022/09/04 00:10:59;;;;;;;0.40;0.40;;;;;;;;;;7396627;19;19999;-77
2022/09/04 00:13:35;;;;;;;0.80;0.70;;;;;;;;;;7391520;19;20455;-78
2022/09/04 00:16:18;;;;;;;0.95;0.60;;;;;;;;;;7394652;19;20007;-78
2022/09/04 00:19:06;;;;;;;1.40;0.60;;;;;;;;;;7385298;19;20097;-77
2022/09/04 00:21:45;;;;;;;1.90;0.80;;;;;;;;;;7384936;19;20028;-77
2022/09/04 00:24:17;;;;;;;1.13;0.80;;;;;;;;;;7387152;19;21149;-77
2022/09/04 00:26:54;;;;;;;0.98;0.80;;;;;;;;;;7392572;19;20019;-77
2022/09/04 00:29:23;;;;;;;1.20;0.63;;;;;;;;;;7394347;19;20013;-77
2022/09/04 00:32:14;;;;;;;0.85;0.60;;;;;;;;;;7396704;19;20117;-77
2022/09/04 00:34:53;;;;;;;0.93;0.90;;;;;;;;;;7398185;19;20006;-77
2022/09/04 00:37:23;;;;;;;0.90;0.80;;;;;;;;;;7394355;19;20022;-78
2022/09/04 00:40:13;;;;;;;0.90;0.85;;;;;;;;;;7387910;19;20490;-77
2022/09/04 00:43:05;;;;;;;0.95;0.88;;;;;;;;;;7390167;19;20010;-77
2022/09/04 00:45:48;;;;;;;0.90;0.70;;;;;;;;;;7389361;19;20021;-77
2022/09/04 00:48:35;;;;;;;1.30;0.75;;;;;;;;;;7387945;19;20006;-77
2022/09/04 00:51:23;;;;;;;1.15;0.90;;;;;;;;;;7394019;19;20007;-77
2022/09/04 00:53:57;;;;;;;1.42;0.90;;;;;;;;;;7388604;19;20027;-78
2022/09/04 00:56:29;;;;;;;1.10;0.70;;;;;;;;;;7392582;19;20483;-78
2022/09/04 00:59:00;;;;;;;1.33;0.70;;;;;;;;;;7394127;19;20460;-78
2022/09/04 01:01:27;;;;;;;1.13;0.60;;;;;;;;;;7387318;19;20019;-78
2022/09/04 01:04:11;;;;;;;0.57;0.57;;;;;;;;;;7387212;19;20006;-78
2022/09/04 01:07:01;;;;;;;0.70;0.60;;;;;;;;;;7392211;19;20324;-78
2022/09/04 01:09:52;;;;;;;0.80;0.80;;;;;;;;;;7390772;19;20423;-78
2022/09/04 01:12:48;;;;;;;2.55;0.75;;;;;;;;;;7385633;19;20007;-78
2022/09/04 01:15:40;;;;;;;0.50;0.50;;;;;;;;;;7386562;19;20007;-78
2022/09/04 01:18:23;;;;;;;0.80;0.80;;;;;;;;;;7386502;19;20022;-78
2022/09/04 01:21:17;;;;;;;0.80;0.68;;;;;;;;;;7388185;19;20018;-78
2022/09/04 01:24:16;;;;;;;0.98;0.80;;;;;;;;;;7387905;19;20017;-77
2022/09/04 01:26:54;;;;;;;2.25;0.80;;;;;;;;;;7394982;19;20074;-77
2022/09/04 01:29:40;;;;;;;2.97;0.80;;;;;;;;;;7387752;19;20021;-77
2022/09/04 01:32:30;;;;;;;2.28;0.70;;;;;;;;;;7391980;19;20014;-77
2022/09/04 01:35:23;;;;;;;0.60;0.43;;;;;;;;;;7393706;19;20010;-77
2022/09/04 01:38:00;;;;;;;1.77;0.80;;;;;;;;;;7392030;19;20006;-78
2022/09/04 01:40:39;;;;;;;0.70;0.60;;;;;;;;;;7395971;19;20114;-78
2022/09/04 01:43:10;;;;;;;0.77;0.45;;;;;;;;;;7391861;19;20014;-78
2022/09/04 01:46:05;;;;;;;0.95;0.60;;;;;;;;;;7396807;19;20393;-77
2022/09/04 01:48:36;;;;;;;0.63;0.40;;;;;;;;;;7391609;19;20035;-77
2022/09/04 01:51:10;;;;;;;0.43;0.40;;;;;;;;;;7393185;19;20185;-77
2022/09/04 01:53:42;;;;;;;0.57;0.52;;;;;;;;;;7387709;19;20011;-78
2022/09/04 01:56:20;;;;;;;0.43;0.43;;;;;;;;;;7391574;19;20476;-78
2022/09/04 01:58:53;;;;;;;0.60;0.60;;;;;;;;;;7388077;19;20119;-78
2022/09/04 02:01:18;;;;;;;0.57;0.57;;;;;;;;;;7386925;19;20114;-78
2022/09/04 02:04:06;;;;;;;0.80;0.50;;;;;;;;;;7387254;19;20007;-78
2022/09/04 02:06:41;;;;;;;0.60;0.40;;;;;;;;;;7387810;19;20460;-78
2022/09/04 02:09:49;;;;;;;0.40;0.40;;;;;;;;;;7388120;19;20033;-78
2022/09/04 02:12:46;;;;;;;2.58;0.82;;;;;;;;;;7385948;19;20338;-78
2022/09/04 02:15:30;;;;;;;0.40;0.40;;;;;;;;;;7386025;19;20467;-78
2022/09/04 02:18:10;;;;;;;0.50;0.50;;;;;;;;;;7386747;19;20350;-77
2022/09/04 02:20:39;;;;;;;0.70;0.50;;;;;;;;;;7397464;19;20058;-78
2022/09/04 02:23:29;;;;;;;0.55;0.55;;;;;;;;;;7383853;19;20007;-77
2022/09/04 02:26:19;;;;;;;0.85;0.70;;;;;;;;;;7387690;19;20166;-78
2022/09/04 02:28:53;;;;;;;0.55;0.40;;;;;;;;;;7389668;19;20051;-78
2022/09/04 02:31:47;;;;;;;0.50;0.50;;;;;;;;;;7395062;19;20763;-78
2022/09/04 02:34:24;;;;;;;0.70;0.70;;;;;;;;;;7393512;19;20039;-77
2022/09/04 02:37:21;;;;;;;0.70;0.70;;;;;;;;;;7397583;19;20006;-78
2022/09/04 02:40:02;;;;;;;0.63;0.63;;;;;;;;;;7402158;19;20040;-77
2022/09/04 02:42:49;;;;;;;0.60;0.47;;;;;;;;;;7395576;19;20013;-78
2022/09/04 02:45:27;;;;;;;0.70;0.70;;;;;;;;;;7392449;19;20113;-79
2022/09/04 02:48:14;;;;;;;0.95;0.80;;;;;;;;;;7391747;19;20018;-77
2022/09/04 02:51:12;;;;;;;0.73;0.60;;;;;;;;;;7393735;19;20047;-78
2022/09/04 02:53:48;;;;;;;1.38;0.82;;;;;;;;;;7398467;19;20029;-78
2022/09/04 02:56:23;;;;;;;1.80;0.50;;;;;;;;;;7394255;19;20098;-77
2022/09/04 02:58:56;;;;;;;0.50;0.50;;;;;;;;;;7393214;19;20010;-78
2022/09/04 03:01:46;;;;;;;0.73;0.60;;;;;;;;;;7393792;19;20010;-78
2022/09/04 03:04:48;;;;;;;0.82;0.70;;;;;;;;;;7395349;19;20018;-77
2022/09/04 03:07:17;;;;;;;0.60;0.60;;;;;;;;;;7393902;19;20006;-78
2022/09/04 03:09:59;;;;;;;1.17;0.50;;;;;;;;;;7397072;19;19998;-77
2022/09/04 03:13:00;;;;;;;1.00;0.80;;;;;;;;;;7392867;19;19999;-78
2022/09/04 03:15:48;;;;;;;1.58;0.60;;;;;;;;;;7392994;19;20002;-78
2022/09/04 03:18:21;;;;;;;1.13;0.55;;;;;;;;;;7390305;19;20497;-78
2022/09/04 03:20:58;;;;;;;2.45;0.65;;;;;;;;;;7392672;19;20021;-78
2022/09/04 03:23:46;;;;;;;0.55;0.55;;;;;;;;;;7392940;19;20010;-77
2022/09/04 03:26:32;;;;;;;0.95;0.75;;;;;;;;;;7391672;19;20010;-78
2022/09/04 03:29:08;;;;;;;0.90;0.70;;;;;;;;;;7394972;19;20024;-77
2022/09/04 03:31:39;;;;;;;0.50;0.50;;;;;;;;;;7393124;19;20395;-78
2022/09/04 03:34:42;;;;;;;0.95;0.70;;;;;;;;;;7393988;19;20333;-77
2022/09/04 03:37:31;;;;;;;0.63;0.63;;;;;;;;;;7395667;19;20007;-78
2022/09/04 03:39:59;;;;;;;0.57;0.57;;;;;;;;;;7402142;19;20024;-78
2022/09/04 03:42:46;;;;;;;0.43;0.43;;;;;;;;;;7404123;19;20081;-77
2022/09/04 03:45:28;;;;;;;0.60;0.60;;;;;;;;;;7401927;19;19998;-78
2022/09/04 03:47:59;;;;;;;0.88;0.88;;;;;;;;;;7402133;19;20038;-78
2022/09/04 03:50:46;;;;;;;0.68;0.68;;;;;;;;;;7403816;19;20011;-78
2022/09/04 03:53:39;;;;;;;1.27;0.95;;;;;;;;;;7403455;19;20018;-78
2022/09/04 03:56:40;;;;;;;2.10;0.82;;;;;;;;;;7404268;19;20023;-78
2022/09/04 03:59:05;;;;;;;1.05;0.95;;;;;;;;;;7399001;19;20096;-78
2022/09/04 04:01:50;;;;;;;1.00;0.80;;;;;;;;;;7396438;19;20011;-78
2022/09/04 04:04:59;;;;;;;1.37;0.70;;;;;;;;;;7398421;19;20002;-78
2022/09/04 04:07:50;;;;;;;1.02;0.77;;;;;;;;;;7388154;19;20027;-78
2022/09/04 04:10:32;;;;;;;1.73;0.73;;;;;;;;;;7395547;19;20035;-78
2022/09/04 04:13:11;;;;;;;1.38;1.10;;;;;;;;;;7397260;19;20010;-78
2022/09/04 04:16:14;;;;;;;0.70;0.70;;;;;;;;;;7399768;19;20023;-78
2022/09/04 04:19:05;;;;;;;0.95;0.60;;;;;;;;;;7398314;19;20006;-78
2022/09/04 04:21:54;;;;;;;0.57;0.57;;;;;;;;;;7398304;19;20331;-78
2022/09/04 04:24:37;;;;;;;1.10;0.93;;;;;;;;;;7400555;19;20129;-78
2022/09/04 04:27:21;;;;;;;0.90;0.70;;;;;;;;;;7399358;19;20007;-77
2022/09/04 04:30:02;;;;;;;0.60;0.60;;;;;;;;;;7389323;19;20006;-79
2022/09/04 04:32:39;;;;;;;2.65;1.15;;;;;;;;;;7390122;19;20029;-78
2022/09/04 04:35:28;;;;;;;1.05;0.95;;;;;;;;;;7394014;19;20014;-78
2022/09/04 04:38:01;;;;;;;1.50;0.80;;;;;;;;;;7392950;19;20107;-79
2022/09/04 04:40:26;;;;;;;0.77;0.77;;;;;;;;;;7395993;19;20011;-79
2022/09/04 04:43:07;;;;;;;1.73;0.90;;;;;;;;;;7394645;19;20027;-78
2022/09/04 04:45:51;;;;;;;0.55;0.50;;;;;;;;;;7396138;19;20006;-79
2022/09/04 04:48:53;;;;;;;0.85;0.75;;;;;;;;;;7386027;19;20006;-79
2022/09/04 04:51:38;;;;;;;2.00;0.70;;;;;;;;;;7391429;19;20077;-79
2022/09/04 04:54:12;;;;;;;1.73;1.13;;;;;;;;;;7391188;19;20087;-78
2022/09/04 04:56:58;;;;;;;0.60;0.60;;;;;;;;;;7390558;19;20646;-79
2022/09/04 04:59:23;;;;;;;;;;;;;;;;;;7392327;19;20007;-79
2022/09/04 05:02:03;;;;;;;2.55;1.08;;;;;;;;;;7388108;19;19939;-79
2022/09/04 05:05:06;;;;;;;0.90;0.90;;;;;;;;;;7385229;19;20022;-79
2022/09/04 05:07:42;;;;;;;2.13;0.80;;;;;;;;;;7389336;19;20020;-79
2022/09/04 05:10:22;;;;;;;1.15;0.85;;;;;;;;;;7390627;19;20006;-79
2022/09/04 05:13:00;;;;;;;1.45;1.35;;;;;;;;;;7388589;19;20013;-79
2022/09/04 05:16:10;;;;;;;1.42;0.80;;;;;;;;;;7390219;19;20022;-79
2022/09/04 05:18:58;;;;;;;0.70;0.60;;;;;;;;;;7392004;19;20747;-80
2022/09/04 05:21:34;;;;;;;0.70;0.70;;;;;;;;;;7395927;19;20006;-79
2022/09/04 05:24:44;;;;;;;0.60;0.57;;;;;;;;;;7406316;19;20013;-80
2022/09/04 05:27:38;;;;;;;1.20;1.08;;;;;;;;;;7391640;19;20018;-80
2022/09/04 05:30:46;;;;;;;0.90;0.75;;;;;;;;;;7396304;19;20035;-80
2022/09/04 05:33:21;;;;;;;1.35;1.10;;;;;;;;;;7393274;19;20429;-81
2022/09/04 05:36:01;;;;;;;2.38;1.20;;;;;;;;;;7393379;19;20013;-80
2022/09/04 05:38:43;;;;;;;2.85;1.13;;;;;;;;;;7392294;19;20452;-79
2022/09/04 05:41:20;;;;;;;1.25;0.70;;;;;;;;;;7395121;19;20007;-80
2022/09/04 05:44:17;;;;;;;1.25;1.15;;;;;;;;;;7393985;19;20124;-80
2022/09/04 05:47:10;;;;;;;0.57;0.57;;;;;;;;;;7400472;19;20014;-79
2022/09/04 05:49:45;;;;;;;2.25;0.95;;;;;;;;;;7393491;19;19998;-80
2022/09/04 05:52:38;;;;;;;5.32;1.00;;;;;;;;;;7395462;19;20011;-81
2022/09/04 05:55:30;;;;;;;1.50;0.98;;;;;;;;;;7392979;19;20059;-80
2022/09/04 05:58:24;;;;;;;2.35;1.00;;;;;;;;;;7393065;19;20057;-80
2022/09/04 06:01:12;;;;;;;0.70;0.70;;;;;;;;;;7396241;19;20104;-79
2022/09/04 06:03:59;;;;;;;0.70;0.70;;;;;;;;;;7396152;19;20100;-79
2022/09/04 06:06:52;;;;;;;0.60;0.60;;;;;;;;;;7402861;19;20475;-79
2022/09/04 06:09:36;;;;;;;0.55;0.55;;;;;;;;;;7401152;19;20006;-79
2022/09/04 06:12:23;;;;;;;0.60;0.60;;;;;;;;;;7403262;19;20042;-79
2022/09/04 06:14:55;;;;;;;1.58;0.75;;;;;;;;;;7404380;19;20043;-79
2022/09/04 06:17:57;;;;;;;0.52;0.52;;;;;;;;;;7400899;19;20074;-79
2022/09/04 06:20:46;;;;;;;2.55;0.95;;;;;;;;;;7399481;19;20023;-80
2022/09/04 06:23:26;;;;;;;2.40;1.20;;;;;;;;;;7401139;19;20021;-80
2022/09/04 06:26:00;;;;;;;1.40;1.10;;;;;;;;;;7402436;19;20006;-80
2022/09/04 06:28:38;;;;;;;1.52;1.02;;;;;;;;;;7398382;19;20022;-80
2022/09/04 06:31:09;;;;;;;1.38;0.98;;;;;;;;;;7402672;19;20134;-78
2022/09/04 06:33:56;;;;;;;1.05;0.98;;;;;;;;;;7396173;19;20317;-79
2022/09/04 06:36:33;;;;;;;1.17;1.00;;;;;;;;;;7396649;19;20003;-78
2022/09/04 06:39:10;;;;;;;1.17;1.00;;;;;;;;;;7396863;19;20018;-79
2022/09/04 06:41:49;;;;;;;2.47;1.58;;;;;;;;;;7393923;19;20011;-79
2022/09/04 06:44:45;;;;;;;0.75;0.73;;;;;;;;;;7399373;19;20010;-79
2022/09/04 06:47:21;;;;;;;0.93;0.70;;;;;;;;;;7397796;19;20002;-79
2022/09/04 06:50:24;;;;;;;1.33;0.57;;;;;;;;;;7398677;19;20011;-79
2022/09/04 06:53:04;;;;;;;1.33;1.20;;;;;;;;;;7399276;19;20118;-79
2022/09/04 06:55:55;;;;;;;1.60;0.85;;;;;;;;;;7397494;19;20448;-79
2022/09/04 06:58:59;;;;;;;0.63;0.63;;;;;;;;;;7393049;19;20824;-79
2022/09/04 07:01:39;;;;;;;4.63;0.80;;;;;;;;;;7398212;19;20009;-79
2022/09/04 07:04:38;;;;;;;0.60;0.60;;;;;;;;;;7397132;19;20029;-78
2022/09/04 07:07:31;;;;;;;0.73;0.60;;;;;;;;;;7395764;19;20020;-78
2022/09/04 07:10:10;;;;;;;3.42;1.05;;;;;;;;;;7395150;19;20018;-79
2022/09/04 07:12:53;;;;;;;0.65;0.65;;;;;;;;;;7395161;19;20002;-79
2022/09/04 07:15:42;;;;;;;0.70;0.70;;;;;;;;;;7384476;19;20018;-79
2022/09/04 07:18:33;;;;;;;1.48;0.80;;;;;;;;;;7394631;19;20010;-79
2022/09/04 07:21:08;;;;;;;2.05;0.82;;;;;;;;;;7395814;19;20014;-79
2022/09/04 07:23:52;;;;;;;0.82;0.60;;;;;;;;;;7390674;19;20010;-79
2022/09/04 07:26:28;;;;;;;0.70;0.70;;;;;;;;;;7392701;19;20017;-78
2022/09/04 07:29:31;;;;;;;0.80;0.75;;;;;;;;;;7393947;19;20100;-77
2022/09/04 07:32:00;;;;;;;0.70;0.70;;;;;;;;;;7385297;19;20141;-77
2022/09/04 07:34:42;;;;;;;0.68;0.68;;;;;;;;;;7391744;19;20043;-77
2022/09/04 07:37:28;;;;;;;1.88;0.60;;;;;;;;;;7392289;19;20018;-77
2022/09/04 07:40:02;;;;;;;0.98;0.77;;;;;;;;;;7395241;19;20062;-77
2022/09/04 07:42:41;;;;;;;0.80;0.80;;;;;;;;;;7389261;19;20011;-78
2022/09/04 07:45:28;;;;;;;0.60;0.60;;;;;;;;;;7389119;19;20035;-77
2022/09/04 07:48:21;;;;;;;0.98;0.70;;;;;;;;;;7389561;19;20008;-77
2022/09/04 07:51:09;;;;;;;0.70;0.70;;;;;;;;;;7392407;19;20373;-77
2022/09/04 07:54:13;;;;;;;0.70;0.70;;;;;;;;;;7391604;19;20073;-78
2022/09/04 07:57:07;;;;;;;1.15;1.05;;;;;;;;;;7397056;19;20003;-78
2022/09/04 07:59:59;;;;;;;1.10;1.00;;;;;;;;;;7390270;19;22250;-78
2022/09/04 08:02:50;;;;;;;1.08;1.00;;;;;;;;;;7390707;19;20015;-78
2022/09/04 08:05:22;;;;;;;1.02;0.80;;;;;;;;;;7386619;19;20074;-78
2022/09/04 08:08:11;;;;;;;1.05;0.90;;;;;;;;;;7389546;19;20453;-78
2022/09/04 08:10:58;;;;;;;1.65;0.90;;;;;;;;;;7394829;19;20010;-80
2022/09/04 08:13:34;;;;;;;1.73;1.00;;;;;;;;;;7394573;19;20022;-78
2022/09/04 08:16:12;;;;;;;1.23;1.13;;;;;;;;;;7388291;19;20031;-79
2022/09/04 08:19:04;;;;;;;1.00;0.80;;;;;;;;;;7394778;19;20007;-79
2022/09/04 08:21:37;;;;;;;1.25;1.08;;;;;;;;;;7393212;19;20121;-79
2022/09/04 08:24:27;;;;;;;2.88;0.80;;;;;;;;;;7396445;19;20010;-79
2022/09/04 08:27:14;;;;;;;1.08;0.98;;;;;;;;;;7400269;19;20346;-79
2022/09/04 08:29:54;;;;;;;2.42;0.90;;;;;;;;;;7390754;19;19998;-76
2022/09/04 08:32:26;;;;;;;3.10;0.80;;;;;;;;;;7390521;19;20061;-80
2022/09/04 08:35:20;;;;;;;0.80;0.77;;;;;;;;;;7391402;19;20011;-79
2022/09/04 08:38:25;;;;;;;1.73;0.98;;;;;;;;;;7389615;19;20014;-78
2022/09/04 08:40:59;;;;;;;0.80;0.70;;;;;;;;;;7392829;19;20028;-78
2022/09/04 08:43:55;;;;;;;1.10;1.00;;;;;;;;;;7394522;19;20013;-80
2022/09/04 08:46:32;;;;;;;0.83;0.83;;;;;;;;;;7394697;19;20251;-80
2022/09/04 08:49:15;;;;;;;1.10;1.00;;;;;;;;;;7390021;19;20030;-80
2022/09/04 08:52:14;;;;;;;1.48;0.95;;;;;;;;;;7383702;19;20011;-78
2022/09/04 08:54:59;;;;;;;0.88;0.88;;;;;;;;;;7390602;19;20454;-78
2022/09/04 08:57:49;;;;;;;1.00;0.80;;;;;;;;;;7385185;19;19994;-78
2022/09/04 09:00:21;;;;;;;1.58;0.95;;;;;;;;;;7389594;19;20002;-79
2022/09/04 09:03:05;;;;;;;2.13;1.00;;;;;;;;;;7382447;19;20026;-79
2022/09/04 09:05:54;;;;;;;0.70;0.70;;;;;;;;;;7394471;19;20040;-79
2022/09/04 09:08:38;;;;;;;1.00;0.90;;;;;;;;;;7389713;19;20018;-79
2022/09/04 09:11:18;;;;;;;1.40;0.80;;;;;;;;;;7390253;19;20351;-78
2022/09/04 09:14:21;;;;;;;0.75;0.70;;;;;;;;;;7388763;19;20006;-79
2022/09/04 09:17:11;;;;;;;1.67;0.80;;;;;;;;;;7387351;19;20015;-79
2022/09/04 09:20:09;;;;;;;2.72;1.65;;;;;;;;;;7387423;19;20014;-78
2022/09/04 09:23:16;;;;;;;1.10;1.00;;;;;;;;;;7390712;19;20002;-78
2022/09/04 09:26:07;;;;;;;0.80;0.80;;;;;;;;;;7392739;19;20102;-78
2022/09/04 09:29:03;;;;;;;0.82;0.68;;;;;;;;;;7387939;19;20401;-78
2022/09/04 09:31:51;;;;;;;0.80;0.80;;;;;;;;;;7389986;19;20130;-78
2022/09/04 09:34:51;;;;;;;2.45;0.88;;;;;;;;;;7392044;19;20007;-78
2022/09/04 09:38:05;;;;;;;0.80;0.63;;;;;;;;;;7390615;19;20021;-79
2022/09/04 09:40:59;;;;;;;1.23;0.98;;;;;;;;;;7389626;19;20046;-78
2022/09/04 09:44:02;;;;;;;2.05;0.90;;;;;;;;;;7390749;19;20011;-78
2022/09/04 09:46:37;;;;;;;0.88;0.80;;;;;;;;;;7389770;19;20020;-78
2022/09/04 09:49:27;;;;;;;;;;;;;;;;;;7389257;19;20003;-79
2022/09/04 09:52:01;;;;;;;0.60;0.57;;;;;;;;;;7387155;19;19921;-79
2022/09/04 09:54:45;;;;;;;0.70;0.70;;;;;;;;;;7385581;19;20007;-79
2022/09/04 09:57:40;;;;;;;0.93;0.80;;;;;;;;;;7383708;19;20032;-78
2022/09/04 10:00:16;;;;;;;1.65;1.00;;;;;;;;;;7387175;19;20015;-79
2022/09/04 10:03:06;;;;;;;1.20;0.70;;;;;;;;;;7384432;19;20086;-79
2022/09/04 10:05:43;;;;;;;0.85;0.55;;;;;;;;;;7384753;19;20010;-78
2022/09/04 10:08:26;;;;;;;0.30;0.30;;;;;;;;;;7381323;19;20015;-78
2022/09/04 10:11:04;;;;;;;0.80;0.80;;;;;;;;;;7391801;19;20049;-79
2022/09/04 10:13:48;;;;;;;0.60;0.60;;;;;;;;;;7388778;19;20843;-79
2022/09/04 10:16:32;;;;;;;0.93;0.65;;;;;;;;;;7389755;19;20007;-79
2022/09/04 10:19:28;;;;;;;2.50;0.70;;;;;;;;;;7392899;19;20412;-78
2022/09/04 10:22:20;;;;;;;0.47;0.47;;;;;;;;;;7392512;19;20014;-79
2022/09/04 10:25:04;;;;;;;0.80;0.60;;;;;;;;;;7381385;19;20018;-79
2022/09/04 10:27:46;;;;;;;0.93;0.60;;;;;;;;;;7379338;19;20010;-79
2022/09/04 10:30:19;;;;;;;1.40;0.47;;;;;;;;;;7379269;19;20019;-79
2022/09/04 10:33:03;;;;;;;2.22;0.60;;;;;;;;;;7379343;19;20007;-79
2022/09/04 10:36:06;;;;;;;0.82;0.60;;;;;;;;;;7380308;19;20036;-79
2022/09/04 10:41:46;;;;;;;1.60;0.90;;;;;;;;;;7381551;19;20026;-80
2022/09/04 10:44:57;;;;;;;0.30;0.30;;;;;;;;;;7390671;19;19995;-79
2022/09/04 10:47:51;;;;;;;0.60;0.50;;;;;;;;;;7385631;19;20027;-79
2022/09/04 10:51:07;;;;;;;1.60;0.43;;;;;;;;;;7389222;19;20031;-79
2022/09/04 10:53:51;;;;;;;0.38;0.38;;;;;;;;;;7395336;19;20631;-79
2022/09/04 10:56:21;;;;;;;0.85;0.50;;;;;;;;;;7395874;19;20014;-80
2022/09/04 10:59:15;;;;;;;0.75;0.43;;;;;;;;;;7392717;19;20034;-79
2022/09/04 11:01:57;;;;;;;0.50;0.50;;;;;;;;;;7390973;19;20107;-79
2022/09/04 11:04:46;;;;;;;0.68;0.45;;;;;;;;;;7391936;19;20378;-79
2022/09/04 11:07:34;;;;;;;0.32;0.30;;;;;;;;;;7394288;19;20532;-80
2022/09/04 11:10:27;;;;;;;0.73;0.50;;;;;;;;;;7396577;19;20014;-79
2022/09/04 11:13:20;;;;;;;1.27;0.75;;;;;;;;;;7396971;19;20014;-81
2022/09/04 11:16:10;;;;;;;0.95;0.63;;;;;;;;;;7399174;19;20065;-80
2022/09/04 11:19:19;;;;;;;1.05;0.38;;;;;;;;;;7395654;19;20010;-80
2022/09/04 11:21:54;;;;;;;4.68;2.20;;;;;;;;;;7393676;19;20329;-79
2022/09/04 11:25:00;;;;;;;0.68;0.68;;;;;;;;;;7396085;19;20002;-80
2022/09/04 11:27:48;;;;;;;0.70;0.53;;;;;;;;;;7393383;19;20546;-81
2022/09/04 11:30:33;;;;;;;0.73;0.50;;;;;;;;;;7398993;19;20735;-80
2022/09/04 11:33:35;;;;;;;0.85;0.85;;;;;;;;;;7405005;19;20023;-80
2022/09/04 11:36:34;;;;;;;0.52;0.40;;;;;;;;;;7405185;19;20332;-80
2022/09/04 11:39:41;;;;;;;0.30;0.30;;;;;;;;;;7399074;19;20043;-81
2022/09/04 11:42:31;;;;;;;1.52;0.60;;;;;;;;;;7396326;19;20010;-80
2022/09/04 11:45:04;;;;;;;1.30;0.50;;;;;;;;;;7395589;19;20013;-79
2022/09/04 11:47:39;;;;;;;0.52;0.50;;;;;;;;;;7394427;19;20043;-78
2022/09/04 11:50:37;;;;;;;2.53;0.60;;;;;;;;;;7393171;19;20043;-77
2022/09/04 11:53:22;;;;;;;2.70;0.60;;;;;;;;;;7392834;19;20013;-77
2022/09/04 11:56:22;;;;;;;0.93;0.60;;;;;;;;;;7394034;19;20431;-78
2022/09/04 11:59:28;;;;;;;0.88;0.38;;;;;;;;;;7395926;19;20030;-78
2022/09/04 12:02:09;;;;;;;;;;;;;;;;;;7388788;19;20010;-78
2022/09/04 12:05:04;;;;;;;0.45;0.45;;;;;;;;;;7386905;19;19946;-80
2022/09/04 12:07:51;;;;;;;2.47;0.77;;;;;;;;;;7389962;19;20014;-78
2022/09/04 12:10:46;;;;;;;0.80;0.50;;;;;;;;;;7397632;19;20011;-79
2022/09/04 12:13:42;;;;;;;3.13;0.60;;;;;;;;;;7396192;19;20010;-78
2022/09/04 12:16:13;;;;;;;0.95;0.50;;;;;;;;;;7393304;19;20018;-77
2022/09/04 12:18:43;;;;;;;0.57;0.57;;;;;;;;;;7395042;19;20058;-78
2022/09/04 12:21:36;;;;;;;0.50;0.50;;;;;;;;;;7394657;19;20019;-80
2022/09/04 12:24:20;;;;;;;1.17;0.55;;;;;;;;;;7398226;19;19999;-78
2022/09/04 12:27:06;;;;;;;0.50;0.50;;;;;;;;;;7396782;19;20073;-79
2022/09/04 12:29:37;;;;;;;0.63;0.50;;;;;;;;;;7399871;19;20011;-78
2022/09/04 12:32:29;;;;;;;0.40;0.40;;;;;;;;;;7395592;19;20006;-78
2022/09/04 12:35:06;;;;;;;0.73;0.50;;;;;;;;;;7394974;19;20047;-78
2022/09/04 12:37:59;;;;;;;0.57;0.43;;;;;;;;;;7396285;19;20014;-78
2022/09/04 12:40:46;;;;;;;2.65;0.68;;;;;;;;;;7398182;19;20010;-78
2022/09/04 12:43:44;;;;;;;0.88;0.50;;;;;;;;;;7398369;19;20002;-78
2022/09/04 12:46:38;;;;;;;0.40;0.40;;;;;;;;;;7396010;19;20014;-78
2022/09/04 12:49:48;;;;;;;0.57;0.40;;;;;;;;;;7394369;19;20015;-78
2022/09/04 12:52:32;;;;;;;0.50;0.50;;;;;;;;;;7397208;19;20460;-77
2022/09/04 12:55:09;;;;;;;2.05;0.73;;;;;;;;;;7397743;19;20007;-79
2022/09/04 12:57:54;;;;;;;0.90;0.35;;;;;;;;;;7396969;19;20003;-78
2022/09/04 13:00:25;;;;;;;1.05;0.60;;;;;;;;;;7394956;19;20027;-78
2022/09/04 13:02:59;;;;;;;1.10;0.70;;;;;;;;;;7393510;19;20006;-78
2022/09/04 13:05:52;;;;;;;0.57;0.57;;;;;;;;;;7394418;19;20010;-79
2022/09/04 13:08:52;;;;;;;0.73;0.52;;;;;;;;;;7392751;19;20408;-78
2022/09/04 13:11:37;;;;;;;1.42;0.90;;;;;;;;;;7395741;19;20010;-79
2022/09/04 13:14:27;;;;;;;;;;;;;;;;;;7396236;19;20002;-78
2022/09/04 13:17:24;;;;;;;0.50;0.50;;;;;;;;;;7393072;19;20377;-78
2022/09/04 13:20:16;;;;;;;0.85;0.60;;;;;;;;;;7392703;19;19991;-78
2022/09/04 13:23:17;;;;;;;1.00;0.60;;;;;;;;;;7395467;19;20070;-78
2022/09/04 13:25:47;;;;;;;1.00;0.50;;;;;;;;;;7397023;19;20023;-79
2022/09/04 13:28:34;;;;;;;0.40;0.30;;;;;;;;;;7395544;19;20020;-78
2022/09/04 13:31:18;;;;;;;1.60;0.60;;;;;;;;;;7394661;19;20023;-78
2022/09/04 13:34:01;;;;;;;0.45;0.45;;;;;;;;;;7397095;19;20033;-78
2022/09/04 13:36:26;;;;;;;0.90;0.50;;;;;;;;;;7394969;19;20010;-78
2022/09/04 13:38:55;;;;;;;1.10;0.50;;;;;;;;;;7395066;19;20059;-79
2022/09/04 13:41:49;;;;;;;0.50;0.50;;;;;;;;;;7395602;19;20010;-78
2022/09/04 13:44:46;;;;;;;0.40;0.40;;;;;;;;;;7395634;19;20014;-79
2022/09/04 13:47:24;;;;;;;0.52;0.50;;;;;;;;;;7393343;19;20027;-79
2022/09/04 13:50:07;;;;;;;0.55;0.55;;;;;;;;;;7391770;19;20005;-79
2022/09/04 13:52:44;;;;;;;0.50;0.50;;;;;;;;;;7395663;19;20017;-78
2022/09/04 13:55:20;;;;;;;0.50;0.50;;;;;;;;;;7394049;19;20014;-78
2022/09/04 13:58:00;;;;;;;2.22;1.60;;;;;;;;;;7395269;19;20003;-78
2022/09/04 14:00:28;;;;;;;0.60;0.60;;;;;;;;;;7392983;19;20022;-79
2022/09/04 14:03:00;;;;;;;0.40;0.40;;;;;;;;;;7391626;19;20028;-78
2022/09/04 14:05:27;;;;;;;0.47;0.47;;;;;;;;;;7394086;19;20035;-79
2022/09/04 14:08:05;;;;;;;0.77;0.50;;;;;;;;;;7391337;19;20010;-78
2022/09/04 14:10:45;;;;;;;0.52;0.32;;;;;;;;;;7394285;19;20506;-79
2022/09/04 14:13:22;;;;;;;1.27;0.32;;;;;;;;;;7390622;19;20007;-79
2022/09/04 14:16:02;;;;;;;0.40;0.40;;;;;;;;;;7389737;19;20018;-79
2022/09/04 14:18:54;;;;;;;0.55;0.55;;;;;;;;;;7389174;19;20035;-79
2022/09/04 14:21:28;;;;;;;0.82;0.40;;;;;;;;;;7394484;19;20599;-80
2022/09/04 14:24:31;;;;;;;1.13;0.40;;;;;;;;;;7393333;19;20003;-79
2022/09/04 14:27:34;;;;;;;0.60;0.40;;;;;;;;;;7400510;19;19995;-78
2022/09/04 14:30:02;;;;;;;0.50;0.50;;;;;;;;;;7400889;19;20110;-80
2022/09/04 14:32:46;;;;;;;0.50;0.50;;;;;;;;;;7401419;19;20042;-79
2022/09/04 14:35:45;;;;;;;0.35;0.35;;;;;;;;;;7396997;19;20003;-79
2022/09/04 14:38:31;;;;;;;0.85;0.52;;;;;;;;;;7397644;19;20015;-78
2022/09/04 14:41:15;;;;;;;0.65;0.60;;;;;;;;;;7414853;19;20011;-80
2022/09/04 14:43:40;;;;;;;0.47;0.40;;;;;;;;;;7402500;19;20003;-80
2022/09/04 14:46:17;;;;;;;0.40;0.40;;;;;;;;;;7398831;19;20413;-79
2022/09/04 14:48:49;;;;;;;0.45;0.38;;;;;;;;;;7399678;19;19999;-79
2022/09/04 14:51:30;;;;;;;1.35;0.55;;;;;;;;;;7397798;19;20018;-79
2022/09/04 14:53:57;;;;;;;1.33;0.50;;;;;;;;;;7399515;19;20002;-79
2022/09/04 14:56:36;;;;;;;0.50;0.43;;;;;;;;;;7396351;19;20328;-80
2022/09/04 14:59:14;;;;;;;1.02;0.50;;;;;;;;;;7399177;19;20518;-79
2022/09/04 15:02:15;;;;;;;2.60;0.60;;;;;;;;;;7399253;19;20011;-79
2022/09/04 15:05:02;;;;;;;1.38;0.60;;;;;;;;;;7400286;19;19999;-79
2022/09/04 15:07:42;;;;;;;0.63;0.47;;;;;;;;;;7399263;19;20022;-79
2022/09/04 15:10:13;;;;;;;0.55;0.50;;;;;;;;;;7398610;19;20013;-79
2022/09/04 15:12:50;;;;;;;0.52;0.50;;;;;;;;;;7398301;19;20006;-79
2022/09/04 15:15:30;;;;;;;1.33;0.60;;;;;;;;;;7398513;19;19995;-78
2022/09/04 15:18:26;;;;;;;0.43;0.43;;;;;;;;;;7396364;19;20002;-79
2022/09/04 15:21:02;;;;;;;0.98;0.40;;;;;;;;;;7394791;19;20006;-80
2022/09/04 15:23:43;;;;;;;0.40;0.40;;;;;;;;;;7397558;19;20483;-79
2022/09/04 15:26:20;;;;;;;0.50;0.50;;;;;;;;;;7399539;19;20034;-78
2022/09/04 15:28:50;;;;;;;0.52;0.52;;;;;;;;;;7400022;19;20003;-78
2022/09/04 15:31:28;;;;;;;0.73;0.40;;;;;;;;;;7396556;19;20010;-79
2022/09/04 15:34:00;;;;;;;0.30;0.30;;;;;;;;;;7398054;19;20094;-79
2022/09/04 15:36:26;;;;;;;1.35;0.40;;;;;;;;;;7396668;19;20003;-79
2022/09/04 15:39:03;;;;;;;1.20;0.60;;;;;;;;;;7398597;19;20452;-80
2022/09/04 15:41:32;;;;;;;0.57;0.50;;;;;;;;;;7398716;19;20558;-79
2022/09/04 15:44:18;;;;;;;0.63;0.50;;;;;;;;;;7398153;19;20047;-80
2022/09/04 15:47:04;;;;;;;0.60;0.50;;;;;;;;;;7393725;19;20216;-79
2022/09/04 15:49:38;;;;;;;0.82;0.52;;;;;;;;;;7396943;19;20002;-79
2022/09/04 15:52:23;;;;;;;;;;;;;;;;;;7398001;19;20399;-79
2022/09/04 15:54:55;;;;;;;1.25;0.73;;;;;;;;;;7398788;19;19935;-79
2022/09/04 15:57:28;;;;;;;0.43;0.43;;;;;;;;;;7395954;19;20023;-79
2022/09/04 16:00:10;;;;;;;0.60;0.50;;;;;;;;;;7396314;19;20014;-78
2022/09/04 16:02:58;;;;;;;0.55;0.55;;;;;;;;;;7397385;19;20033;-78
2022/09/04 16:05:43;;;;;;;0.30;0.30;;;;;;;;;;7393893;19;20066;-78
2022/09/04 16:08:45;;;;;;;0.82;0.40;;;;;;;;;;7395330;19;20024;-79
2022/09/04 16:11:19;;;;;;;0.73;0.60;;;;;;;;;;7394921;19;20374;-79
2022/09/04 16:14:02;;;;;;;0.70;0.70;;;;;;;;;;7396385;19;20034;-78
2022/09/04 16:16:47;;;;;;;8.10;4.72;;;;;;;;;;7392738;19;20472;-78
2022/09/04 16:19:21;;;;;;;4.15;2.50;;;;;;;;;;7395135;19;20009;-78
2022/09/04 16:22:09;;;;;;;1.15;1.05;;;;;;;;;;7396293;19;20006;-78
2022/09/04 16:24:46;;;;;;;0.68;0.68;;;;;;;;;;7398104;19;19999;-78
2022/09/04 16:27:15;;;;;;;1.05;0.47;;;;;;;;;;7396269;19;20010;-78
2022/09/04 16:29:49;;;;;;;0.75;0.63;;;;;;;;;;7397700;19;20321;-78
2022/09/04 16:32:24;;;;;;;0.60;0.57;;;;;;;;;;7395643;19;20085;-77